sensor_id;sensor_type;location;lat;lon;timestamp;pressure;altitude;pressure_sealevel;temperature;humidity
9764;BME280;4921;43.214;27.936;2023-03-16T00:04:57;100021.88;;;11.29;100.00
9764;BME280;4921;43.214;27.936;2023-03-16T00:07:24;100021.47;;;11.24;100.00
9764;BME280;4921;43.214;27.936;2023-03-16T00:09:52;100015.94;;;11.27;100.00
9764;BME280;4921;43.214;27.936;2023-03-16T00:12:19;100020.91;;;11.40;100.00
9764;BME280;4921;43.214;27.936;2023-03-16T00:14:48;100020.59;;;11.43;100.00
9764;BME280;4921;43.214;27.936;2023-03-16T00:17:16;100020.75;;;11.41;100.00
9764;BME280;4921;43.214;27.936;2023-03-16T00:19:48;100022.41;;;11.42;100.00
9764;BME280;4921;43.214;27.936;2023-03-16T00:22:19;100029.06;;;11.46;100.00
9764;BME280;4921;43.214;27.936;2023-03-16T00:24:47;100022.38;;;11.52;100.00
9764;BME280;4921;43.214;27.936;2023-03-16T00:27:16;100026.38;;;11.56;100.00
9764;BME280;4921;43.214;27.936;2023-03-16T00:29:44;100014.47;;;11.52;100.00
9764;BME280;4921;43.214;27.936;2023-03-16T00:32:17;100018.78;;;11.53;100.00
9764;BME280;4921;43.214;27.936;2023-03-16T00:34:44;100017.63;;;11.65;100.00
9764;BME280;4921;43.214;27.936;2023-03-16T00:37:14;100024.59;;;11.57;100.00
9764;BME280;4921;43.214;27.936;2023-03-16T00:39:42;100019.31;;;11.66;100.00
9764;BME280;4921;43.214;27.936;2023-03-16T00:42:10;100029.97;;;11.65;100.00
9764;BME280;4921;43.214;27.936;2023-03-16T00:44:40;100023.72;;;11.66;100.00
9764;BME280;4921;43.214;27.936;2023-03-16T00:47:08;100021.00;;;11.58;100.00
9764;BME280;4921;43.214;27.936;2023-03-16T00:49:39;100029.13;;;11.74;100.00
9764;BME280;4921;43.214;27.936;2023-03-16T00:52:08;100019.84;;;11.79;100.00
9764;BME280;4921;43.214;27.936;2023-03-16T00:54:39;100020.56;;;11.72;100.00
9764;BME280;4921;43.214;27.936;2023-03-16T00:57:08;100025.41;;;11.76;100.00
9764;BME280;4921;43.214;27.936;2023-03-16T00:59:36;100023.53;;;11.86;100.00
9764;BME280;4921;43.214;27.936;2023-03-16T01:02:06;100022.75;;;11.86;100.00
9764;BME280;4921;43.214;27.936;2023-03-16T01:04:34;100016.47;;;11.87;100.00
9764;BME280;4921;43.214;27.936;2023-03-16T01:07:01;100027.31;;;11.84;100.00
9764;BME280;4921;43.214;27.936;2023-03-16T01:09:28;100019.66;;;11.90;100.00
9764;BME280;4921;43.214;27.936;2023-03-16T01:11:55;100016.31;;;11.88;100.00
9764;BME280;4921;43.214;27.936;2023-03-16T01:14:23;100023.69;;;11.85;100.00
9764;BME280;4921;43.214;27.936;2023-03-16T01:16:50;100018.28;;;11.86;100.00
9764;BME280;4921;43.214;27.936;2023-03-16T01:19:18;100026.19;;;11.86;100.00
9764;BME280;4921;43.214;27.936;2023-03-16T01:21:47;100025.66;;;11.73;100.00
9764;BME280;4921;43.214;27.936;2023-03-16T01:24:14;100025.56;;;11.75;100.00
9764;BME280;4921;43.214;27.936;2023-03-16T01:26:41;100020.97;;;11.77;100.00
9764;BME280;4921;43.214;27.936;2023-03-16T01:29:09;100027.34;;;11.74;100.00
9764;BME280;4921;43.214;27.936;2023-03-16T01:31:36;100027.19;;;11.76;100.00
9764;BME280;4921;43.214;27.936;2023-03-16T01:34:23;100029.97;;;11.84;100.00
9764;BME280;4921;43.214;27.936;2023-03-16T01:36:50;100039.78;;;11.82;100.00
9764;BME280;4921;43.214;27.936;2023-03-16T01:39:18;100043.66;;;11.87;100.00
9764;BME280;4921;43.214;27.936;2023-03-16T01:41:46;100041.88;;;11.88;100.00
9764;BME280;4921;43.214;27.936;2023-03-16T01:44:22;100054.59;;;11.92;100.00
9764;BME280;4921;43.214;27.936;2023-03-16T01:46:54;100051.28;;;11.90;100.00
9764;BME280;4921;43.214;27.936;2023-03-16T01:49:25;100050.88;;;11.85;100.00
9764;BME280;4921;43.214;27.936;2023-03-16T01:51:57;100066.09;;;11.91;100.00
9764;BME280;4921;43.214;27.936;2023-03-16T01:54:27;100056.25;;;11.93;100.00
9764;BME280;4921;43.214;27.936;2023-03-16T01:57:00;100051.81;;;11.94;100.00
9764;BME280;4921;43.214;27.936;2023-03-16T01:59:34;100064.56;;;11.98;100.00
9764;BME280;4921;43.214;27.936;2023-03-16T02:02:03;100057.09;;;11.94;100.00
9764;BME280;4921;43.214;27.936;2023-03-16T02:04:41;100063.19;;;11.94;100.00
9764;BME280;4921;43.214;27.936;2023-03-16T02:07:10;100059.88;;;11.92;100.00
9764;BME280;4921;43.214;27.936;2023-03-16T02:09:43;100068.63;;;11.83;100.00
9764;BME280;4921;43.214;27.936;2023-03-16T02:12:13;100068.91;;;11.90;100.00
9764;BME280;4921;43.214;27.936;2023-03-16T02:14:43;100061.25;;;11.87;100.00
9764;BME280;4921;43.214;27.936;2023-03-16T02:17:11;100067.91;;;11.91;100.00
9764;BME280;4921;43.214;27.936;2023-03-16T02:19:48;100055.84;;;11.88;100.00
9764;BME280;4921;43.214;27.936;2023-03-16T02:22:18;100066.34;;;11.98;100.00
9764;BME280;4921;43.214;27.936;2023-03-16T02:24:49;100065.25;;;12.00;100.00
9764;BME280;4921;43.214;27.936;2023-03-16T02:27:22;100070.59;;;11.81;100.00
9764;BME280;4921;43.214;27.936;2023-03-16T02:30:00;100075.19;;;11.70;100.00
9764;BME280;4921;43.214;27.936;2023-03-16T02:32:30;100083.75;;;11.81;100.00
9764;BME280;4921;43.214;27.936;2023-03-16T02:34:59;100082.13;;;11.71;100.00
9764;BME280;4921;43.214;27.936;2023-03-16T02:37:27;100083.78;;;11.62;100.00
9764;BME280;4921;43.214;27.936;2023-03-16T02:39:54;100083.88;;;11.61;100.00
9764;BME280;4921;43.214;27.936;2023-03-16T02:42:23;100091.09;;;11.59;100.00
9764;BME280;4921;43.214;27.936;2023-03-16T02:44:53;100081.94;;;11.63;100.00
9764;BME280;4921;43.214;27.936;2023-03-16T02:47:28;100086.13;;;11.75;100.00
9764;BME280;4921;43.214;27.936;2023-03-16T02:49:56;100089.16;;;11.80;100.00
9764;BME280;4921;43.214;27.936;2023-03-16T02:52:23;100085.81;;;11.78;100.00
9764;BME280;4921;43.214;27.936;2023-03-16T02:54:50;100089.72;;;11.83;100.00
9764;BME280;4921;43.214;27.936;2023-03-16T02:57:17;100089.97;;;11.90;100.00
9764;BME280;4921;43.214;27.936;2023-03-16T02:59:44;100094.69;;;11.86;100.00
9764;BME280;4921;43.214;27.936;2023-03-16T03:02:11;100091.09;;;11.87;100.00
9764;BME280;4921;43.214;27.936;2023-03-16T03:04:40;100098.16;;;11.87;100.00
9764;BME280;4921;43.214;27.936;2023-03-16T03:07:11;100088.59;;;11.86;100.00
9764;BME280;4921;43.214;27.936;2023-03-16T03:09:39;100096.19;;;11.89;100.00
9764;BME280;4921;43.214;27.936;2023-03-16T03:12:08;100098.16;;;11.87;100.00
9764;BME280;4921;43.214;27.936;2023-03-16T03:14:35;100105.94;;;11.79;100.00
9764;BME280;4921;43.214;27.936;2023-03-16T03:17:03;100111.91;;;11.71;100.00
9764;BME280;4921;43.214;27.936;2023-03-16T03:19:31;100104.25;;;11.78;100.00
9764;BME280;4921;43.214;27.936;2023-03-16T03:22:01;100111.16;;;11.88;100.00
9764;BME280;4921;43.214;27.936;2023-03-16T03:24:31;100115.22;;;11.92;100.00
9764;BME280;4921;43.214;27.936;2023-03-16T03:26:59;100116.69;;;11.95;100.00
9764;BME280;4921;43.214;27.936;2023-03-16T03:29:30;100122.53;;;11.89;100.00
9764;BME280;4921;43.214;27.936;2023-03-16T03:31:59;100119.78;;;11.90;100.00
9764;BME280;4921;43.214;27.936;2023-03-16T03:34:26;100121.44;;;11.91;100.00
9764;BME280;4921;43.214;27.936;2023-03-16T03:36:53;100124.34;;;11.88;100.00
9764;BME280;4921;43.214;27.936;2023-03-16T03:39:21;100108.84;;;11.76;100.00
9764;BME280;4921;43.214;27.936;2023-03-16T03:41:48;100128.50;;;11.91;100.00
9764;BME280;4921;43.214;27.936;2023-03-16T03:44:19;100129.88;;;11.95;100.00
9764;BME280;4921;43.214;27.936;2023-03-16T03:46:46;100141.81;;;11.89;100.00
9764;BME280;4921;43.214;27.936;2023-03-16T03:49:13;100139.34;;;11.88;100.00
9764;BME280;4921;43.214;27.936;2023-03-16T03:51:40;100134.34;;;11.94;100.00
9764;BME280;4921;43.214;27.936;2023-03-16T03:54:07;100144.44;;;11.99;100.00
9764;BME280;4921;43.214;27.936;2023-03-16T03:56:36;100146.38;;;11.97;100.00
9764;BME280;4921;43.214;27.936;2023-03-16T03:59:03;100152.47;;;11.97;100.00
9764;BME280;4921;43.214;27.936;2023-03-16T04:01:30;100165.38;;;11.91;100.00
9764;BME280;4921;43.214;27.936;2023-03-16T04:03:57;100151.53;;;11.89;100.00
9764;BME280;4921;43.214;27.936;2023-03-16T04:06:24;100142.97;;;11.68;100.00
9764;BME280;4921;43.214;27.936;2023-03-16T04:08:50;100160.69;;;11.85;100.00
9764;BME280;4921;43.214;27.936;2023-03-16T04:11:19;100166.91;;;11.93;100.00
9764;BME280;4921;43.214;27.936;2023-03-16T04:13:50;100169.59;;;11.84;100.00
9764;BME280;4921;43.214;27.936;2023-03-16T04:16:17;100164.31;;;11.84;100.00
9764;BME280;4921;43.214;27.936;2023-03-16T04:18:44;100156.13;;;11.77;100.00
9764;BME280;4921;43.214;27.936;2023-03-16T04:21:13;100174.28;;;11.90;100.00
9764;BME280;4921;43.214;27.936;2023-03-16T04:23:41;100171.66;;;11.90;100.00
9764;BME280;4921;43.214;27.936;2023-03-16T04:26:09;100178.44;;;11.92;100.00
9764;BME280;4921;43.214;27.936;2023-03-16T04:28:36;100188.69;;;11.95;100.00
9764;BME280;4921;43.214;27.936;2023-03-16T04:31:06;100188.13;;;11.92;100.00
9764;BME280;4921;43.214;27.936;2023-03-16T04:33:34;100190.94;;;11.90;100.00
9764;BME280;4921;43.214;27.936;2023-03-16T04:36:01;100193.13;;;11.95;100.00
9764;BME280;4921;43.214;27.936;2023-03-16T04:38:28;100193.25;;;11.93;100.00
9764;BME280;4921;43.214;27.936;2023-03-16T04:40:58;100198.25;;;11.96;100.00
9764;BME280;4921;43.214;27.936;2023-03-16T04:43:25;100195.06;;;12.02;100.00
9764;BME280;4921;43.214;27.936;2023-03-16T04:45:52;100196.44;;;11.97;100.00
9764;BME280;4921;43.214;27.936;2023-03-16T04:48:21;100202.53;;;11.97;100.00
9764;BME280;4921;43.214;27.936;2023-03-16T04:50:50;100202.53;;;11.97;100.00
9764;BME280;4921;43.214;27.936;2023-03-16T04:53:17;100202.97;;;11.93;100.00
9764;BME280;4921;43.214;27.936;2023-03-16T04:55:44;100210.47;;;11.88;100.00
9764;BME280;4921;43.214;27.936;2023-03-16T04:58:11;100220.31;;;11.86;100.00
9764;BME280;4921;43.214;27.936;2023-03-16T05:00:38;100207.72;;;11.70;100.00
9764;BME280;4921;43.214;27.936;2023-03-16T05:03:06;100212.53;;;11.84;100.00
9764;BME280;4921;43.214;27.936;2023-03-16T05:05:36;100220.31;;;11.86;100.00
9764;BME280;4921;43.214;27.936;2023-03-16T05:08:03;100220.72;;;11.91;100.00
9764;BME280;4921;43.214;27.936;2023-03-16T05:10:31;100218.66;;;11.94;100.00
9764;BME280;4921;43.214;27.936;2023-03-16T05:12:59;100221.56;;;11.91;100.00
9764;BME280;4921;43.214;27.936;2023-03-16T05:15:26;100220.44;;;11.84;100.00
9764;BME280;4921;43.214;27.936;2023-03-16T05:17:53;100228.34;;;11.84;100.00
9764;BME280;4921;43.214;27.936;2023-03-16T05:20:22;100232.66;;;11.85;100.00
9764;BME280;4921;43.214;27.936;2023-03-16T05:22:51;100222.25;;;11.74;100.00
9764;BME280;4921;43.214;27.936;2023-03-16T05:25:19;100250.69;;;11.80;100.00
9764;BME280;4921;43.214;27.936;2023-03-16T05:27:48;100248.88;;;11.81;100.00
9764;BME280;4921;43.214;27.936;2023-03-16T05:30:16;100247.78;;;11.83;100.00
9764;BME280;4921;43.214;27.936;2023-03-16T05:32:44;100244.31;;;11.83;100.00
9764;BME280;4921;43.214;27.936;2023-03-16T05:35:11;100248.19;;;11.79;100.00
9764;BME280;4921;43.214;27.936;2023-03-16T05:37:39;100242.63;;;11.72;100.00
9764;BME280;4921;43.214;27.936;2023-03-16T05:40:09;100242.63;;;11.82;100.00
9764;BME280;4921;43.214;27.936;2023-03-16T05:42:38;100250.97;;;11.77;100.00
9764;BME280;4921;43.214;27.936;2023-03-16T05:45:08;100241.81;;;11.72;100.00
9764;BME280;4921;43.214;27.936;2023-03-16T05:47:35;100248.47;;;11.76;100.00
9764;BME280;4921;43.214;27.936;2023-03-16T05:50:02;100243.34;;;11.84;100.00
9764;BME280;4921;43.214;27.936;2023-03-16T05:52:30;100255.69;;;11.83;100.00
9764;BME280;4921;43.214;27.936;2023-03-16T05:54:58;100255.53;;;11.85;100.00
9764;BME280;4921;43.214;27.936;2023-03-16T05:57:26;100262.19;;;11.79;100.00
9764;BME280;4921;43.214;27.936;2023-03-16T05:59:53;100256.53;;;11.84;100.00
9764;BME280;4921;43.214;27.936;2023-03-16T06:02:20;100264.28;;;11.85;100.00
9764;BME280;4921;43.214;27.936;2023-03-16T06:04:47;100259.00;;;11.76;100.00
9764;BME280;4921;43.214;27.936;2023-03-16T06:07:14;100264.69;;;11.81;100.00
9764;BME280;4921;43.214;27.936;2023-03-16T06:09:41;100272.44;;;11.82;100.00
9764;BME280;4921;43.214;27.936;2023-03-16T06:12:08;100272.84;;;11.78;100.00
9764;BME280;4921;43.214;27.936;2023-03-16T06:14:37;100273.25;;;11.73;100.00
9764;BME280;4921;43.214;27.936;2023-03-16T06:17:04;100278.41;;;11.75;100.00
9764;BME280;4921;43.214;27.936;2023-03-16T06:19:31;100274.13;;;11.83;100.00
9764;BME280;4921;43.214;27.936;2023-03-16T06:21:57;100272.88;;;11.87;100.00
9764;BME280;4921;43.214;27.936;2023-03-16T06:24:24;100274.53;;;11.88;100.00
9764;BME280;4921;43.214;27.936;2023-03-16T06:26:51;100285.63;;;11.92;100.00
9764;BME280;4921;43.214;27.936;2023-03-16T06:29:18;100288.25;;;11.92;100.00
9764;BME280;4921;43.214;27.936;2023-03-16T06:31:47;100290.06;;;11.91;100.00
9764;BME280;4921;43.214;27.936;2023-03-16T06:34:15;100289.50;;;11.97;100.00
9764;BME280;4921;43.214;27.936;2023-03-16T06:36:42;100292.28;;;11.96;100.00
9764;BME280;4921;43.214;27.936;2023-03-16T06:39:09;100299.38;;;11.86;100.00
9764;BME280;4921;43.214;27.936;2023-03-16T06:41:36;100300.72;;;11.80;100.00
9764;BME280;4921;43.214;27.936;2023-03-16T06:44:03;100301.84;;;11.68;100.00
9764;BME280;4921;43.214;27.936;2023-03-16T06:46:30;100311.75;;;11.65;100.00
9764;BME280;4921;43.214;27.936;2023-03-16T06:48:59;100315.41;;;11.73;100.00
9764;BME280;4921;43.214;27.936;2023-03-16T06:51:26;100317.22;;;11.82;100.00
9764;BME280;4921;43.214;27.936;2023-03-16T06:53:52;100319.56;;;11.66;100.00
9764;BME280;4921;43.214;27.936;2023-03-16T06:56:19;100321.22;;;11.67;100.00
9764;BME280;4921;43.214;27.936;2023-03-16T06:58:46;100329.16;;;11.77;100.00
9764;BME280;4921;43.214;27.936;2023-03-16T07:01:13;100336.66;;;11.81;100.00
9764;BME280;4921;43.214;27.936;2023-03-16T07:03:40;100334.00;;;11.91;100.00
9764;BME280;4921;43.214;27.936;2023-03-16T07:06:09;100342.31;;;11.86;100.00
9764;BME280;4921;43.214;27.936;2023-03-16T07:08:36;100342.88;;;11.71;100.00
9764;BME280;4921;43.214;27.936;2023-03-16T07:11:03;100350.78;;;11.71;100.00
9764;BME280;4921;43.214;27.936;2023-03-16T07:13:30;100344.81;;;11.78;100.00
9764;BME280;4921;43.214;27.936;2023-03-16T07:15:58;100346.63;;;11.78;100.00
9764;BME280;4921;43.214;27.936;2023-03-16T07:18:25;100357.31;;;11.86;100.00
9764;BME280;4921;43.214;27.936;2023-03-16T07:20:52;100359.78;;;11.68;100.00
9764;BME280;4921;43.214;27.936;2023-03-16T07:23:20;100359.47;;;11.62;100.00
9764;BME280;4921;43.214;27.936;2023-03-16T07:25:48;100359.63;;;11.70;100.00
9764;BME280;4921;43.214;27.936;2023-03-16T07:28:16;100361.03;;;11.74;100.00
9764;BME280;4921;43.214;27.936;2023-03-16T07:30:44;100368.72;;;11.56;100.00
9764;BME280;4921;43.214;27.936;2023-03-16T07:33:11;100374.16;;;11.64;100.00
9764;BME280;4921;43.214;27.936;2023-03-16T07:35:38;100375.19;;;11.73;100.00
9764;BME280;4921;43.214;27.936;2023-03-16T07:38:06;100377.13;;;11.80;100.00
9764;BME280;4921;43.214;27.936;2023-03-16T07:40:36;100374.34;;;11.82;100.00
9764;BME280;4921;43.214;27.936;2023-03-16T07:43:03;100372.28;;;11.85;100.00
9764;BME280;4921;43.214;27.936;2023-03-16T07:45:30;100381.69;;;11.78;100.00
9764;BME280;4921;43.214;27.936;2023-03-16T07:47:57;100387.66;;;11.71;100.00
9764;BME280;4921;43.214;27.936;2023-03-16T07:50:24;100383.31;;;11.60;100.00
9764;BME280;4921;43.214;27.936;2023-03-16T07:52:51;100372.03;;;11.48;100.00
9764;BME280;4921;43.214;27.936;2023-03-16T07:55:18;100397.97;;;11.63;100.00
9764;BME280;4921;43.214;27.936;2023-03-16T07:57:47;100396.88;;;11.65;100.00
9764;BME280;4921;43.214;27.936;2023-03-16T08:00:15;100393.25;;;11.47;100.00
9764;BME280;4921;43.214;27.936;2023-03-16T08:02:44;100407.97;;;10.99;100.00
9764;BME280;4921;43.214;27.936;2023-03-16T08:05:11;100400.13;;;11.08;100.00
9764;BME280;4921;43.214;27.936;2023-03-16T08:07:40;100411.28;;;11.01;100.00
9764;BME280;4921;43.214;27.936;2023-03-16T08:10:08;100416.09;;;10.96;100.00
9764;BME280;4921;43.214;27.936;2023-03-16T08:12:36;100411.47;;;11.09;100.00
9764;BME280;4921;43.214;27.936;2023-03-16T08:15:05;100419.09;;;10.91;100.00
9764;BME280;4921;43.214;27.936;2023-03-16T08:17:32;100420.03;;;11.01;100.00
9764;BME280;4921;43.214;27.936;2023-03-16T08:19:59;100422.78;;;11.00;100.00
9764;BME280;4921;43.214;27.936;2023-03-16T08:22:26;100422.38;;;11.04;100.00
9764;BME280;4921;43.214;27.936;2023-03-16T08:24:53;100420.44;;;11.06;100.00
9764;BME280;4921;43.214;27.936;2023-03-16T08:27:20;100427.53;;;10.85;100.00
9764;BME280;4921;43.214;27.936;2023-03-16T08:29:50;100440.69;;;10.85;100.00
9764;BME280;4921;43.214;27.936;2023-03-16T08:32:19;100443.38;;;10.95;100.00
9764;BME280;4921;43.214;27.936;2023-03-16T08:34:46;100436.66;;;11.02;100.00
9764;BME280;4921;43.214;27.936;2023-03-16T08:37:14;100440.78;;;11.04;100.00
9764;BME280;4921;43.214;27.936;2023-03-16T08:39:42;100442.31;;;10.97;100.00
9764;BME280;4921;43.214;27.936;2023-03-16T08:42:10;100448.47;;;10.87;100.00
9764;BME280;4921;43.214;27.936;2023-03-16T08:44:39;100454.84;;;10.94;100.00
9764;BME280;4921;43.214;27.936;2023-03-16T08:47:07;100437.22;;;11.05;100.00
9764;BME280;4921;43.214;27.936;2023-03-16T08:49:36;100446.34;;;11.01;100.00
9764;BME280;4921;43.214;27.936;2023-03-16T08:52:04;100447.75;;;11.05;100.00
9764;BME280;4921;43.214;27.936;2023-03-16T08:54:31;100451.63;;;11.11;100.00
9764;BME280;4921;43.214;27.936;2023-03-16T08:56:58;100445.50;;;11.01;100.00
9764;BME280;4921;43.214;27.936;2023-03-16T08:59:25;100446.97;;;11.14;100.00
9764;BME280;4921;43.214;27.936;2023-03-16T09:01:52;100448.94;;;11.22;100.00
9764;BME280;4921;43.214;27.936;2023-03-16T09:04:20;100456.75;;;11.33;100.00
9764;BME280;4921;43.214;27.936;2023-03-16T09:06:49;100454.31;;;11.41;100.00
9764;BME280;4921;43.214;27.936;2023-03-16T09:09:16;100451.66;;;11.41;100.00
9764;BME280;4921;43.214;27.936;2023-03-16T09:11:44;100463.44;;;11.37;100.00
9764;BME280;4921;43.214;27.936;2023-03-16T09:14:11;100458.88;;;11.39;100.00
9764;BME280;4921;43.214;27.936;2023-03-16T09:16:38;100461.63;;;11.37;100.00
9764;BME280;4921;43.214;27.936;2023-03-16T09:19:05;100462.78;;;11.44;100.00
9764;BME280;4921;43.214;27.936;2023-03-16T09:21:32;100464.97;;;11.39;100.00
9764;BME280;4921;43.214;27.936;2023-03-16T09:24:02;100464.28;;;11.37;100.00
9764;BME280;4921;43.214;27.936;2023-03-16T09:26:29;100473.00;;;11.38;100.00
9764;BME280;4921;43.214;27.936;2023-03-16T09:28:56;100481.91;;;11.46;100.00
9764;BME280;4921;43.214;27.936;2023-03-16T09:31:23;100480.25;;;11.45;100.00
9764;BME280;4921;43.214;27.936;2023-03-16T09:33:51;100481.75;;;11.38;100.00
9764;BME280;4921;43.214;27.936;2023-03-16T09:36:18;100491.47;;;11.47;100.00
9764;BME280;4921;43.214;27.936;2023-03-16T09:38:46;100498.16;;;11.51;100.00
9764;BME280;4921;43.214;27.936;2023-03-16T09:41:28;100503.69;;;11.28;100.00
9764;BME280;4921;43.214;27.936;2023-03-16T09:44:09;100505.50;;;11.27;100.00
9764;BME280;4921;43.214;27.936;2023-03-16T09:46:43;100504.91;;;11.24;100.00
9764;BME280;4921;43.214;27.936;2023-03-16T09:49:16;100508.72;;;11.10;100.00
9764;BME280;4921;43.214;27.936;2023-03-16T09:51:47;100509.75;;;11.19;100.00
9764;BME280;4921;43.214;27.936;2023-03-16T09:54:22;100515.91;;;11.08;100.00
9764;BME280;4921;43.214;27.936;2023-03-16T09:56:54;100518.03;;;11.14;100.00
9764;BME280;4921;43.214;27.936;2023-03-16T09:59:23;100512.69;;;10.84;100.00
9764;BME280;4921;43.214;27.936;2023-03-16T10:02:09;100526.59;;;10.96;100.00
9764;BME280;4921;43.214;27.936;2023-03-16T10:04:49;100521.09;;;10.99;100.00
9764;BME280;4921;43.214;27.936;2023-03-16T10:07:28;100530.88;;;10.33;100.00
9764;BME280;4921;43.214;27.936;2023-03-16T10:10:02;100525.59;;;10.44;100.00
9764;BME280;4921;43.214;27.936;2023-03-16T10:12:36;100532.75;;;10.53;100.00
9764;BME280;4921;43.214;27.936;2023-03-16T10:15:08;100537.69;;;10.67;100.00
9764;BME280;4921;43.214;27.936;2023-03-16T10:17:40;100539.59;;;10.77;100.00
9764;BME280;4921;43.214;27.936;2023-03-16T10:20:14;100533.28;;;10.68;100.00
9764;BME280;4921;43.214;27.936;2023-03-16T10:22:44;100517.91;;;10.52;100.00
9764;BME280;4921;43.214;27.936;2023-03-16T10:25:17;100544.75;;;10.78;100.00
9764;BME280;4921;43.214;27.936;2023-03-16T10:27:47;100540.56;;;10.76;100.00
9764;BME280;4921;43.214;27.936;2023-03-16T10:30:26;100534.16;;;10.89;100.00
9764;BME280;4921;43.214;27.936;2023-03-16T10:32:54;100534.94;;;10.80;100.00
9764;BME280;4921;43.214;27.936;2023-03-16T10:35:30;100535.50;;;10.84;100.00
9764;BME280;4921;43.214;27.936;2023-03-16T10:38:00;100536.06;;;10.55;100.00
9764;BME280;4921;43.214;27.936;2023-03-16T10:40:30;100542.94;;;10.79;100.00
9764;BME280;4921;43.214;27.936;2023-03-16T10:43:05;100541.00;;;10.81;100.00
9764;BME280;4921;43.214;27.936;2023-03-16T10:45:34;100540.09;;;10.70;100.00
9764;BME280;4921;43.214;27.936;2023-03-16T10:50:38;100529.44;;;11.04;100.00
9764;BME280;4921;43.214;27.936;2023-03-16T10:53:14;100540.22;;;11.01;100.00
9764;BME280;4921;43.214;27.936;2023-03-16T10:55:42;100538.09;;;11.15;100.00
9764;BME280;4921;43.214;27.936;2023-03-16T10:58:21;100532.47;;;11.20;100.00
9764;BME280;4921;43.214;27.936;2023-03-16T11:00:49;100540.44;;;11.29;100.00
9764;BME280;4921;43.214;27.936;2023-03-16T11:03:24;100535.72;;;11.33;100.00
9764;BME280;4921;43.214;27.936;2023-03-16T11:05:57;100547.28;;;11.41;100.00
9764;BME280;4921;43.214;27.936;2023-03-16T11:08:26;100544.44;;;11.54;100.00
9764;BME280;4921;43.214;27.936;2023-03-16T11:10:55;100547.53;;;11.59;100.00
9764;BME280;4921;43.214;27.936;2023-03-16T11:13:31;100540.19;;;11.63;100.00
9764;BME280;4921;43.214;27.936;2023-03-16T11:16:02;100538.81;;;11.59;100.00
9764;BME280;4921;43.214;27.936;2023-03-16T11:18:34;100543.69;;;11.63;100.00
9764;BME280;4921;43.214;27.936;2023-03-16T11:21:07;100535.53;;;11.66;100.00
9764;BME280;4921;43.214;27.936;2023-03-16T11:23:41;100534.78;;;11.75;100.00
9764;BME280;4921;43.214;27.936;2023-03-16T11:26:18;100543.94;;;11.81;100.00
9764;BME280;4921;43.214;27.936;2023-03-16T11:28:52;100546.84;;;11.78;100.00
9764;BME280;4921;43.214;27.936;2023-03-16T11:31:36;100544.59;;;11.73;100.00
9764;BME280;4921;43.214;27.936;2023-03-16T11:34:13;100547.97;;;11.75;100.00
9764;BME280;4921;43.214;27.936;2023-03-16T11:41:51;100548.94;;;11.63;100.00
9764;BME280;4921;43.214;27.936;2023-03-16T11:44:27;100546.44;;;11.62;100.00
9764;BME280;4921;43.214;27.936;2023-03-16T11:47:03;100547.84;;;11.66;100.00
9764;BME280;4921;43.214;27.936;2023-03-16T11:49:42;100550.63;;;11.64;100.00
9764;BME280;4921;43.214;27.936;2023-03-16T11:52:17;100556.22;;;11.50;100.00
9764;BME280;4921;43.214;27.936;2023-03-16T11:54:55;100558.22;;;11.16;100.00
9764;BME280;4921;43.214;27.936;2023-03-16T11:57:30;100560.13;;;11.14;100.00
9764;BME280;4921;43.214;27.936;2023-03-16T12:00:12;100561.69;;;11.17;100.00
9764;BME280;4921;43.214;27.936;2023-03-16T12:03:12;100562.13;;;11.22;100.00
9764;BME280;4921;43.214;27.936;2023-03-16T12:05:54;100566.16;;;11.26;100.00
9764;BME280;4921;43.214;27.936;2023-03-16T12:08:47;100577.09;;;11.42;100.00
9764;BME280;4921;43.214;27.936;2023-03-16T12:11:22;100568.63;;;11.38;100.00
9764;BME280;4921;43.214;27.936;2023-03-16T12:13:59;100570.28;;;11.39;100.00
9764;BME280;4921;43.214;27.936;2023-03-16T12:16:40;100572.53;;;11.23;100.00
9764;BME280;4921;43.214;27.936;2023-03-16T12:19:14;100582.56;;;11.29;100.00
9764;BME280;4921;43.214;27.936;2023-03-16T12:21:44;100582.78;;;11.26;100.00
9764;BME280;4921;43.214;27.936;2023-03-16T12:24:18;100588.38;;;11.12;100.00
9764;BME280;4921;43.214;27.936;2023-03-16T12:26:46;100592.13;;;10.99;100.00
9764;BME280;4921;43.214;27.936;2023-03-16T12:29:28;100592.13;;;10.99;100.00
9764;BME280;4921;43.214;27.936;2023-03-16T12:32:08;100597.16;;;11.02;100.00
9764;BME280;4921;43.214;27.936;2023-03-16T12:34:41;100597.72;;;11.05;100.00
9764;BME280;4921;43.214;27.936;2023-03-16T12:37:21;100600.00;;;11.10;100.00
9764;BME280;4921;43.214;27.936;2023-03-16T12:40:02;100600.75;;;11.21;100.00
9764;BME280;4921;43.214;27.936;2023-03-16T12:43:04;100604.59;;;11.17;100.00
9764;BME280;4921;43.214;27.936;2023-03-16T12:45:36;100610.84;;;11.16;100.00
9764;BME280;4921;43.214;27.936;2023-03-16T12:48:13;100602.81;;;11.18;100.00
9764;BME280;4921;43.214;27.936;2023-03-16T12:50:49;100606.53;;;11.15;100.00
9764;BME280;4921;43.214;27.936;2023-03-16T12:53:28;100615.22;;;10.95;100.00
9764;BME280;4921;43.214;27.936;2023-03-16T12:55:55;100616.28;;;11.04;100.00
9764;BME280;4921;43.214;27.936;2023-03-16T12:58:23;100619.44;;;10.87;100.00
9764;BME280;4921;43.214;27.936;2023-03-16T13:00:57;100613.34;;;10.86;100.00
9764;BME280;4921;43.214;27.936;2023-03-16T13:03:26;100613.03;;;11.00;100.00
9764;BME280;4921;43.214;27.936;2023-03-16T13:05:56;100624.75;;;11.07;100.00
9764;BME280;4921;43.214;27.936;2023-03-16T13:08:25;100623.41;;;11.13;100.00
9764;BME280;4921;43.214;27.936;2023-03-16T13:11:04;100623.66;;;11.10;100.00
9764;BME280;4921;43.214;27.936;2023-03-16T13:13:32;100632.19;;;10.91;100.00
9764;BME280;4921;43.214;27.936;2023-03-16T13:16:06;100630.25;;;11.04;100.00